Altoona, Wisconsin
Current Conditions -  °F | °C
As of 10:56 PM on Monday 26 Jan 2015 (Local Time) from KEAU Reporting Station
Haze Haze  
Wind Chill: 27°   Ceiling: 1600
Heat Index: 27°   Visibility: 6mi
Dew Point: 25°   Wind: 0mph
Humidity: 92%   Direction: NA
Pressure: 29.93"   Gusts: NA
Location:  44.81°N, 91.43°W
Report Text: KEAU 270456Z AUTO 00000KT 6SM BR OVC016 M03/M04 A2993 RMK AO2 SLP150 T10281039
Loading
Personal Weather Stations






























Interactive Weather Map New forecast layout! Learn more

10-Day Weather Forecast

Advertisements
Track Severe Weather on mobile